Ana Sayfa
METAR-TAF:

METAR-TAF

Havaalanları :

Yap, Mikronezya

Enlem: 09-29N, Boylam: 138-05E, yükseklik: 28 m

Güncel hava durumu gözlemi

Rapor saat 13:50 UTC de 33 dakika önce yapıldı.
Rüzgar değişken yönden 6 kt
Sıcaklık 28°C
Nem 84%
Basınç 1009 hPa
Görüş mesafesi: 19.3 km
1600 ft yükseklikte az bulutlu
13000 ft yükseklikte parçalı bulutlu
30000 ft yükseklikte parçalı çok bulutlu

METAR: PTYA 221350Z VRB06KT 12SM FEW016 SCT130 BKN300 28/25 A2981 RMK SLP095 T02800246

Saat: 00:23 (14:23 UTC)

Tahmin

Rapor saat 11:36 UTC de 2 saat ve 47 dakika önce yapıldı.
Ayın 22'si saat 12 UTC'den ayın 23'si saat 12 UTC'ye kadar geçerli Tahmin
Rüzgar batı/güneybatıdan 8 kt
Görüş mesafesi: 10 km
1600 ft yükseklikte parçalı bulutlu
12000 ft yükseklikte parçalı çok bulutlu
Civarda sağanaklar

TAF: PTYA 221136Z 2212/2312 25008KT P6SM VCSH SCT016 BKN120

4.000'den fazla havaalanı için hava durumu gözlemleri ve tahminleri (METAR ve TAF raporları).

Kullanılabilir istasyonlar harita üzerinde sarı ve kırmızı noktalarla gösterilir.

İstasyonun adını görmek için fareyi noktanın üzerinde gezdirin.

Sonrasında hava gözlem ve tahminlerini görmek için tıklayın.

Haritayı değiştirmek için: yaklaştırmak için siyah artı işaretli yeşil düğmeye ve uzaklaştırmak için de eksi işaretli düğmeye hızla tıklayın; bitişik haritalar için yeşil okları kullanın.


METAR-TAF: